Maldives Meteorological Service

TAFS

Station TAF
VRMM
171100Z 1712/1818 26012KT 9999 FEW017 TEMPO 1712/1718 27018G35KT 4000 TSRA FEW017CB BKN100=
VRMH
171100Z 1712/1812 26013KT 9999 FEW018 TEMPO 1706/1712 FEW019CB=
VRMK
171100Z 1712/1812 20003KT 9999 FEW018 TEMPO 1712/1718 TEMPO 5000 -TSRA FEW018CB=
VRMT
171100Z 1712/1812 21005KT 9999 FEW018 TEMPO 1712/1718 4000 TSRA FEW017CB BKN110=
VRMG
171100Z 1712/1818 13005KT 9999 FEW018 TEMPO 1712/1718 4000 TSRA FEW017CB BKN110=